createdAt,value
2023-01-09T00:01:34.673Z,1.00
2023-01-09T00:04:03.870Z,0.90
2023-01-09T00:06:32.109Z,1.10
2023-01-09T00:09:00.465Z,0.90
2023-01-09T00:11:28.875Z,0.98
2023-01-09T00:13:57.072Z,0.90
2023-01-09T00:16:25.361Z,0.90
2023-01-09T00:18:55.238Z,1.00
2023-01-09T00:21:23.441Z,0.80
2023-01-09T00:23:54.810Z,0.80
2023-01-09T00:26:23.316Z,0.80
2023-01-09T00:28:54.183Z,1.05
2023-01-09T00:31:22.749Z,0.95
2023-01-09T00:34:03.621Z,0.90
2023-01-09T00:36:31.869Z,0.70
2023-01-09T00:39:00.144Z,0.90
2023-01-09T00:41:35.361Z,0.60
2023-01-09T00:44:07.651Z,0.90
2023-01-09T00:46:40.058Z,0.90
2023-01-09T00:49:10.622Z,0.70
2023-01-09T00:51:40.483Z,0.80
2023-01-09T00:54:10.145Z,0.70
2023-01-09T00:56:38.607Z,0.60
2023-01-09T00:59:08.492Z,0.70
2023-01-09T01:01:36.929Z,0.60
2023-01-09T01:04:25.484Z,0.50
2023-01-09T01:07:12.250Z,0.60
2023-01-09T01:09:40.670Z,0.70
2023-01-09T01:12:08.873Z,0.60
2023-01-09T01:14:38.931Z,0.50
2023-01-09T01:17:08.238Z,0.70
2023-01-09T01:19:37.388Z,0.50
2023-01-09T01:22:06.980Z,0.60
2023-01-09T01:24:35.231Z,0.40
2023-01-09T01:27:03.665Z,0.60
2023-01-09T01:29:31.942Z,0.50
2023-01-09T01:32:00.291Z,0.60
2023-01-09T01:34:29.991Z,0.60
2023-01-09T01:36:58.197Z,0.70
2023-01-09T01:39:27.829Z,0.70
2023-01-09T01:41:56.179Z,0.50
2023-01-09T01:45:13.060Z,0.50
2023-01-09T01:47:50.202Z,0.60
2023-01-09T01:50:24.458Z,0.50
2023-01-09T01:52:57.944Z,0.50
2023-01-09T01:55:27.612Z,0.70
2023-01-09T01:58:01.628Z,0.50
2023-01-09T02:00:33.761Z,0.50
2023-01-09T02:03:03.303Z,0.50
2023-01-09T02:05:32.279Z,0.70
2023-01-09T02:08:00.531Z,0.77
2023-01-09T02:10:30.113Z,0.70
2023-01-09T02:12:58.621Z,0.55
2023-01-09T02:15:30.865Z,0.70
2023-01-09T02:18:23.506Z,0.60
2023-01-09T02:20:58.434Z,0.70
2023-01-09T02:23:56.323Z,0.60
2023-01-09T02:26:59.855Z,0.55
2023-01-09T02:29:46.179Z,0.57
2023-01-09T02:32:26.604Z,0.77
2023-01-09T02:35:04.026Z,0.50
2023-01-09T02:37:39.230Z,0.60
2023-01-09T02:40:16.930Z,0.70
2023-01-09T02:42:46.777Z,0.70
2023-01-09T02:45:15.050Z,0.60
2023-01-09T02:47:46.801Z,0.60
2023-01-09T02:50:20.543Z,0.68
2023-01-09T02:53:12.584Z,0.50
2023-01-09T02:55:55.464Z,0.70
2023-01-09T02:58:40.919Z,0.60
2023-01-09T03:01:23.254Z,0.90
2023-01-09T03:04:02.337Z,0.80
2023-01-09T03:06:35.862Z,0.77
2023-01-09T03:09:09.811Z,0.70
2023-01-09T03:11:45.133Z,0.60
2023-01-09T03:14:16.745Z,0.60
2023-01-09T03:16:47.542Z,0.77
2023-01-09T03:19:19.216Z,0.80
2023-01-09T03:21:48.440Z,0.60
2023-01-09T03:24:16.694Z,1.00
2023-01-09T03:26:45.086Z,0.60
2023-01-09T03:29:13.282Z,0.60
2023-01-09T03:31:41.505Z,0.70
2023-01-09T03:34:09.777Z,0.70
2023-01-09T03:36:39.418Z,0.93
2023-01-09T03:39:07.980Z,0.80
2023-01-09T03:41:36.233Z,0.90
2023-01-09T03:44:04.471Z,0.80
2023-01-09T03:46:32.733Z,0.90
2023-01-09T03:49:00.970Z,0.82
2023-01-09T03:51:29.838Z,1.10
2023-01-09T03:53:59.488Z,0.90
2023-01-09T03:56:27.673Z,1.00
2023-01-09T03:58:56.063Z,1.00
2023-01-09T04:01:24.437Z,1.20
2023-01-09T04:03:52.741Z,1.50
2023-01-09T04:06:20.988Z,1.30
2023-01-09T04:08:49.182Z,1.33
2023-01-09T04:11:18.763Z,1.60
2023-01-09T04:13:46.977Z,1.60
2023-01-09T04:16:15.312Z,1.60
2023-01-09T04:18:43.644Z,1.75
2023-01-09T04:21:11.889Z,1.25
2023-01-09T04:23:40.104Z,1.80
2023-01-09T04:26:08.337Z,1.30
2023-01-09T04:28:38.040Z,1.30
2023-01-09T04:31:06.509Z,1.53
2023-01-09T04:33:34.753Z,1.20
2023-01-09T04:36:03.043Z,1.90
2023-01-09T04:38:31.308Z,1.20
2023-01-09T04:40:59.557Z,1.35
2023-01-09T04:43:27.770Z,1.40
2023-01-09T04:45:57.732Z,1.33
2023-01-09T04:48:25.966Z,1.27
2023-01-09T04:50:54.209Z,1.10
2023-01-09T04:53:22.375Z,1.10
2023-01-09T04:55:50.575Z,1.10
2023-01-09T04:58:18.767Z,0.90
2023-01-09T05:00:46.967Z,0.90
2023-01-09T05:03:16.594Z,1.00
2023-01-09T05:05:45.450Z,1.10
2023-01-09T05:08:13.650Z,1.50
2023-01-09T05:10:41.850Z,1.20
2023-01-09T05:13:10.050Z,1.30
2023-01-09T05:15:38.301Z,1.00
2023-01-09T05:18:06.679Z,1.15
2023-01-09T05:20:36.299Z,1.10
2023-01-09T05:23:04.720Z,1.23
2023-01-09T05:25:32.942Z,1.10
2023-01-09T05:28:01.479Z,1.50
2023-01-09T05:30:29.838Z,0.80
2023-01-09T05:32:58.083Z,1.00
2023-01-09T05:35:26.373Z,1.50
2023-01-09T05:37:56.713Z,1.40
2023-01-09T05:40:32.067Z,1.30
2023-01-09T05:43:00.572Z,1.75
2023-01-09T05:45:29.022Z,1.30
2023-01-09T05:47:57.516Z,1.20
2023-01-09T05:50:25.707Z,1.00
2023-01-09T05:52:55.295Z,1.48
2023-01-09T05:55:23.556Z,1.70
2023-01-09T05:57:51.739Z,1.50
2023-01-09T06:00:20.946Z,1.40
2023-01-09T06:02:49.195Z,1.40
2023-01-09T06:05:17.793Z,1.60
2023-01-09T06:07:46.034Z,1.50
2023-01-09T06:10:16.629Z,1.60
2023-01-09T06:12:48.819Z,1.50
2023-01-09T06:15:17.373Z,1.43
2023-01-09T06:17:45.923Z,1.30
2023-01-09T06:20:14.434Z,1.80
2023-01-09T06:22:44.771Z,1.27
2023-01-09T06:25:13.608Z,1.80
2023-01-09T06:27:43.407Z,1.60
2023-01-09T06:30:12.821Z,1.33
2023-01-09T06:32:41.125Z,1.80
2023-01-09T06:35:10.173Z,1.10
2023-01-09T06:37:38.468Z,2.10
2023-01-09T06:40:07.852Z,1.60
2023-01-09T06:42:36.166Z,1.90
2023-01-09T06:45:06.638Z,2.10
2023-01-09T06:47:34.835Z,1.70
2023-01-09T06:50:04.172Z,1.73
2023-01-09T06:52:32.445Z,1.70
2023-01-09T06:55:00.720Z,1.35
2023-01-09T06:57:29.956Z,1.80
2023-01-09T06:59:58.460Z,2.20
2023-01-09T07:02:28.261Z,1.25
2023-01-09T07:04:56.574Z,1.10
2023-01-09T07:07:24.920Z,1.13
2023-01-09T07:09:53.206Z,1.10
2023-01-09T07:12:21.488Z,1.40
2023-01-09T07:14:49.663Z,1.30
2023-01-09T07:17:18.451Z,0.90
2023-01-09T07:19:48.194Z,1.10
2023-01-09T07:22:16.500Z,0.90
2023-01-09T07:24:45.024Z,0.90
2023-01-09T07:27:13.381Z,1.10
2023-01-09T07:29:41.597Z,1.20
2023-01-09T07:32:09.842Z,1.00
2023-01-09T07:34:38.064Z,0.90
2023-01-09T07:37:07.681Z,0.87
2023-01-09T07:39:35.977Z,1.00
2023-01-09T07:42:04.177Z,1.02
2023-01-09T07:44:32.387Z,0.85
2023-01-09T07:47:00.547Z,1.20
2023-01-09T07:49:28.799Z,0.85
2023-01-09T07:51:57.349Z,0.80
2023-01-09T07:54:26.941Z,0.80
2023-01-09T07:56:56.117Z,0.70
2023-01-09T07:59:24.862Z,0.85
2023-01-09T08:01:53.081Z,1.00
2023-01-09T08:04:21.279Z,0.80
2023-01-09T08:06:49.577Z,0.70
2023-01-09T08:09:18.339Z,1.00
2023-01-09T08:11:47.944Z,1.08
2023-01-09T08:14:16.475Z,0.95
2023-01-09T08:16:45.132Z,0.80
2023-01-09T08:19:13.333Z,0.98
2023-01-09T08:21:41.556Z,0.80
2023-01-09T08:24:11.169Z,0.75
2023-01-09T08:26:39.726Z,1.20
2023-01-09T08:29:09.379Z,0.70
2023-01-09T08:31:37.641Z,0.90
2023-01-09T08:34:05.872Z,0.90
2023-01-09T08:36:34.115Z,0.80
2023-01-09T08:39:02.359Z,0.80
2023-01-09T08:41:48.233Z,0.85
2023-01-09T08:44:34.652Z,1.00
2023-01-09T08:47:08.617Z,0.98
2023-01-09T08:49:38.753Z,1.88
2023-01-09T08:52:07.882Z,0.73
2023-01-09T08:54:38.825Z,0.82
2023-01-09T08:57:07.502Z,0.90
2023-01-09T08:59:37.081Z,0.60
2023-01-09T09:02:05.316Z,0.80
2023-01-09T09:04:33.621Z,0.70
2023-01-09T09:07:02.313Z,0.60
2023-01-09T09:09:30.667Z,0.80
2023-01-09T09:11:58.895Z,0.70
2023-01-09T09:14:59.158Z,0.60
2023-01-09T09:17:29.025Z,1.10
2023-01-09T09:19:57.218Z,0.60
2023-01-09T09:22:25.502Z,0.80
2023-01-09T09:24:53.805Z,0.80
2023-01-09T09:27:22.254Z,0.65
2023-01-09T09:29:50.432Z,0.90
2023-01-09T09:32:18.666Z,0.95
2023-01-09T09:34:48.278Z,0.70
2023-01-09T09:37:16.566Z,0.77
2023-01-09T09:39:44.793Z,0.80
2023-01-09T09:42:57.166Z,0.90
2023-01-09T09:45:41.924Z,0.80
2023-01-09T09:48:23.825Z,1.20
2023-01-09T09:51:26.659Z,1.00
2023-01-09T09:54:00.631Z,1.23
2023-01-09T09:56:33.457Z,1.05
2023-01-09T09:59:05.263Z,1.00
2023-01-09T10:01:41.185Z,1.10
2023-01-09T10:04:14.925Z,1.48
2023-01-09T10:06:46.643Z,0.93
2023-01-09T10:09:24.354Z,2.10
2023-01-09T10:12:00.386Z,1.50
2023-01-09T10:14:28.834Z,1.60
2023-01-09T10:17:14.060Z,1.42
2023-01-09T10:20:11.891Z,1.40
2023-01-09T10:22:51.810Z,1.10
2023-01-09T10:25:27.228Z,1.30
2023-01-09T10:28:14.185Z,1.10
2023-01-09T10:30:45.702Z,1.20
2023-01-09T10:33:36.164Z,1.30
2023-01-09T10:36:30.376Z,1.10
2023-01-09T10:39:04.326Z,1.70
2023-01-09T10:41:37.379Z,1.30
2023-01-09T10:44:09.280Z,1.27
2023-01-09T10:46:42.643Z,1.03
2023-01-09T10:49:15.489Z,1.48
2023-01-09T10:51:48.879Z,1.80
2023-01-09T10:54:22.203Z,1.70
2023-01-09T10:56:56.354Z,1.70
2023-01-09T10:59:24.925Z,1.80
2023-01-09T11:01:54.582Z,2.13
2023-01-09T11:04:27.714Z,2.20
2023-01-09T11:07:01.086Z,1.77
2023-01-09T11:09:59.071Z,1.50
2023-01-09T11:12:29.049Z,1.30
2023-01-09T11:14:57.635Z,1.75
2023-01-09T11:17:28.346Z,2.00
2023-01-09T11:20:04.859Z,1.90
2023-01-09T11:22:44.786Z,1.10
2023-01-09T11:25:17.143Z,1.00
2023-01-09T11:27:45.929Z,1.48
2023-01-09T11:30:27.887Z,1.20
2023-01-09T11:32:57.865Z,1.40
2023-01-09T11:35:33.769Z,1.10
2023-01-09T11:38:06.734Z,1.40
2023-01-09T11:40:46.446Z,0.90
2023-01-09T11:43:19.351Z,0.80
2023-01-09T11:46:00.638Z,1.20
2023-01-09T11:48:36.271Z,1.30
2023-01-09T11:51:08.113Z,1.02
2023-01-09T11:53:56.677Z,1.10
2023-01-09T11:56:26.416Z,0.80
2023-01-09T11:58:54.712Z,0.90
2023-01-09T12:01:50.607Z,0.90
2023-01-09T12:04:28.828Z,1.40
2023-01-09T12:07:26.408Z,1.10
2023-01-09T12:10:04.286Z,0.73
2023-01-09T12:12:43.279Z,1.05
2023-01-09T12:15:25.816Z,0.95
2023-01-09T12:18:23.628Z,1.20
2023-01-09T12:21:18.064Z,1.10
2023-01-09T12:24:01.478Z,0.90
2023-01-09T12:26:34.051Z,1.10
2023-01-09T12:29:25.021Z,1.10
2023-01-09T12:32:14.302Z,1.00
2023-01-09T12:34:59.232Z,0.90
2023-01-09T12:38:02.718Z,1.20
2023-01-09T12:40:44.795Z,1.60
2023-01-09T12:43:21.418Z,1.10
2023-01-09T12:46:04.340Z,1.20
2023-01-09T12:48:46.860Z,1.23
2023-01-09T12:51:32.541Z,0.95
2023-01-09T12:54:04.742Z,1.70
2023-01-09T12:56:37.437Z,1.00
2023-01-09T12:59:19.640Z,1.30
2023-01-09T13:01:51.053Z,1.43
2023-01-09T13:04:25.468Z,1.37
2023-01-09T13:06:58.992Z,1.30
2023-01-09T13:09:33.832Z,1.20
2023-01-09T13:12:09.141Z,1.40
2023-01-09T13:14:49.623Z,1.40
2023-01-09T13:17:23.204Z,1.33
2023-01-09T13:19:53.198Z,1.17
2023-01-09T13:22:24.292Z,1.40
2023-01-09T13:25:20.455Z,1.50
2023-01-09T13:27:56.411Z,1.35
2023-01-09T13:30:46.852Z,1.33
2023-01-09T13:33:21.938Z,1.00
2023-01-09T13:35:52.319Z,1.45
2023-01-09T13:38:23.951Z,1.10
2023-01-09T13:41:21.882Z,1.03
2023-01-09T13:43:56.363Z,0.90
2023-01-09T13:46:32.410Z,1.20
2023-01-09T13:49:03.681Z,1.50
2023-01-09T13:51:56.548Z,1.33
2023-01-09T13:55:04.337Z,1.17
2023-01-09T13:57:34.914Z,1.75
2023-01-09T14:00:44.507Z,2.00
2023-01-09T14:03:22.016Z,1.48
2023-01-09T14:06:16.287Z,1.30
2023-01-09T14:08:46.614Z,1.35
2023-01-09T14:11:24.131Z,1.90
2023-01-09T14:14:08.226Z,8.30
2023-01-09T14:16:38.189Z,2.47
2023-01-09T14:19:21.008Z,3.20
2023-01-09T14:21:54.415Z,2.05
2023-01-09T14:24:27.366Z,2.00
2023-01-09T14:26:58.137Z,3.00
2023-01-09T14:29:41.094Z,2.83
2023-01-09T14:32:46.948Z,4.80
2023-01-09T14:35:26.663Z,8.75
2023-01-09T14:38:05.866Z,4.00
2023-01-09T14:40:35.137Z,3.30
2023-01-09T14:43:24.588Z,3.20
2023-01-09T14:45:54.714Z,6.82
2023-01-09T14:48:24.531Z,2.83
2023-01-09T14:50:56.045Z,2.20
2023-01-09T14:53:28.241Z,3.80
2023-01-09T14:55:57.949Z,2.65
2023-01-09T14:58:28.317Z,6.03
2023-01-09T15:01:01.717Z,5.45
2023-01-09T15:03:35.529Z,2.50
2023-01-09T15:06:04.272Z,3.17
2023-01-09T15:08:34.363Z,2.88
2023-01-09T15:11:05.658Z,3.00
2023-01-09T15:13:37.770Z,3.63
2023-01-09T15:16:07.534Z,4.23
2023-01-09T15:18:42.016Z,3.20
2023-01-09T15:21:20.163Z,3.65
2023-01-09T15:23:49.930Z,4.15
2023-01-09T15:26:27.194Z,4.20
2023-01-09T15:29:02.627Z,3.35
2023-01-09T15:31:31.250Z,4.03
2023-01-09T15:33:59.579Z,3.80
2023-01-09T15:36:31.007Z,2.88
2023-01-09T15:39:01.189Z,3.73
2023-01-09T15:41:48.786Z,3.50
2023-01-09T15:44:20.522Z,3.20
2023-01-09T15:46:51.848Z,2.80
2023-01-09T15:49:20.961Z,2.50
2023-01-09T15:51:50.632Z,3.60
2023-01-09T15:54:30.740Z,2.80
2023-01-09T15:57:35.612Z,2.72
2023-01-09T16:00:46.320Z,5.72
2023-01-09T16:03:20.359Z,6.18
2023-01-09T16:05:53.084Z,4.20
2023-01-09T16:08:25.163Z,10.70
2023-01-09T16:10:57.521Z,6.82
2023-01-09T16:13:28.438Z,4.20
2023-01-09T16:15:58.841Z,5.30
2023-01-09T16:18:33.400Z,4.80
2023-01-09T16:21:23.760Z,3.70
2023-01-09T16:23:57.465Z,4.20
2023-01-09T16:26:29.080Z,3.38
2023-01-09T16:28:58.110Z,3.70
2023-01-09T16:31:29.033Z,4.13
2023-01-09T16:34:06.380Z,4.30
2023-01-09T16:36:36.164Z,6.00
2023-01-09T16:39:05.162Z,9.68
2023-01-09T16:41:52.291Z,4.05
2023-01-09T16:44:20.463Z,4.07
2023-01-09T16:46:48.768Z,4.60
2023-01-09T16:49:19.763Z,6.68
2023-01-09T16:51:48.507Z,4.65
2023-01-09T16:54:17.143Z,4.78
2023-01-09T16:56:49.554Z,4.88
2023-01-09T16:59:21.602Z,4.00
2023-01-09T17:01:50.080Z,4.65
2023-01-09T17:04:20.123Z,6.20
2023-01-09T17:06:49.509Z,6.13
2023-01-09T17:09:19.875Z,7.63
2023-01-09T17:11:49.715Z,6.10
2023-01-09T17:14:18.087Z,6.13
2023-01-09T17:16:46.971Z,4.70
2023-01-09T17:19:23.599Z,4.53
2023-01-09T17:21:51.845Z,5.20
2023-01-09T17:24:37.379Z,4.90
2023-01-09T17:27:24.306Z,7.32
2023-01-09T17:29:52.597Z,7.68
2023-01-09T17:32:21.403Z,5.70
2023-01-09T17:34:49.717Z,6.10
2023-01-09T17:37:19.872Z,6.23
2023-01-09T17:39:48.213Z,5.43
2023-01-09T17:42:17.863Z,4.40
2023-01-09T17:44:46.055Z,4.80
2023-01-09T17:47:16.036Z,4.45
2023-01-09T17:49:44.351Z,5.30
2023-01-09T17:52:12.568Z,4.28
2023-01-09T17:54:41.076Z,4.23
2023-01-09T17:57:15.235Z,4.28
2023-01-09T17:59:45.653Z,4.80
2023-01-09T18:02:20.091Z,4.20
2023-01-09T18:04:48.463Z,4.15
2023-01-09T18:07:17.771Z,4.00
2023-01-09T18:09:46.343Z,5.60
2023-01-09T18:12:14.500Z,4.40
2023-01-09T18:14:44.245Z,5.18
2023-01-09T18:17:14.092Z,4.80
2023-01-09T18:19:42.500Z,4.07
2023-01-09T18:22:10.703Z,4.90
2023-01-09T18:24:39.087Z,4.80
2023-01-09T18:27:07.328Z,3.25
2023-01-09T18:29:35.515Z,5.47
2023-01-09T18:32:05.478Z,2.30
2023-01-09T18:34:33.837Z,2.50
2023-01-09T18:37:02.109Z,2.60
2023-01-09T18:39:30.510Z,2.45
2023-01-09T18:41:58.757Z,3.00
2023-01-09T18:44:26.967Z,6.63
2023-01-09T18:46:55.213Z,1.90
2023-01-09T18:49:24.858Z,1.52
2023-01-09T18:51:53.173Z,1.73
2023-01-09T18:54:21.461Z,2.40
2023-01-09T18:56:49.821Z,2.75
2023-01-09T18:59:18.014Z,3.00
2023-01-09T19:01:47.343Z,2.28
2023-01-09T19:04:15.865Z,2.55
2023-01-09T19:06:45.740Z,2.17
2023-01-09T19:09:14.220Z,2.92
2023-01-09T19:11:44.341Z,3.15
2023-01-09T19:14:13.170Z,3.17
2023-01-09T19:16:42.405Z,3.20
2023-01-09T19:19:10.874Z,3.58
2023-01-09T19:21:39.254Z,4.18
2023-01-09T19:24:09.193Z,3.40
2023-01-09T19:26:37.753Z,3.60
2023-01-09T19:29:05.994Z,4.57
2023-01-09T19:31:34.792Z,3.90
2023-01-09T19:34:03.134Z,4.03
2023-01-09T19:36:31.440Z,3.83
2023-01-09T19:39:00.982Z,3.78
2023-01-09T19:41:31.759Z,3.78
2023-01-09T19:44:00.979Z,3.70
2023-01-09T19:46:30.716Z,3.58
2023-01-09T19:48:59.131Z,4.20
2023-01-09T19:51:27.315Z,3.83
2023-01-09T19:56:30.199Z,3.35
2023-01-09T19:59:02.171Z,2.97
2023-01-09T20:01:32.024Z,3.30
2023-01-09T20:04:03.265Z,3.40
2023-01-09T20:06:32.059Z,4.13
2023-01-09T20:09:02.218Z,3.50
2023-01-09T20:11:35.798Z,3.92
2023-01-09T20:14:06.254Z,4.13
2023-01-09T20:16:34.575Z,4.50
2023-01-09T20:19:07.406Z,4.10
2023-01-09T20:21:36.495Z,4.53
2023-01-09T20:24:06.499Z,4.70
2023-01-09T20:26:35.608Z,5.28
2023-01-09T20:29:08.809Z,4.60
2023-01-09T20:31:37.871Z,5.50
2023-01-09T20:34:06.509Z,5.13
2023-01-09T20:36:34.904Z,6.40
2023-01-09T20:39:05.968Z,6.20
2023-01-09T20:41:34.976Z,6.88
2023-01-09T20:44:07.070Z,13.38
2023-01-09T20:46:37.951Z,9.52
2023-01-09T20:49:08.601Z,7.78
2023-01-09T20:51:38.096Z,6.03
2023-01-09T20:54:06.693Z,9.97
2023-01-09T20:56:36.128Z,6.50
2023-01-09T20:59:07.161Z,6.50
2023-01-09T21:01:35.570Z,6.90
2023-01-09T21:04:04.321Z,7.30
2023-01-09T21:06:33.210Z,6.23
2023-01-09T21:09:01.666Z,6.38
2023-01-09T21:11:30.045Z,6.20
2023-01-09T21:13:58.469Z,6.30
2023-01-09T21:16:28.230Z,5.60
2023-01-09T21:18:56.699Z,5.47
2023-01-09T21:21:27.606Z,6.10
2023-01-09T21:23:57.680Z,5.10
2023-01-09T21:26:29.142Z,5.13
2023-01-09T21:28:59.483Z,5.28
2023-01-09T21:31:33.695Z,4.97
2023-01-09T21:34:03.356Z,4.60
2023-01-09T21:36:31.927Z,5.00
2023-01-09T21:39:00.676Z,4.78
2023-01-09T21:41:46.172Z,4.70
2023-01-09T21:44:32.597Z,5.32
2023-01-09T21:47:03.385Z,5.20
2023-01-09T21:49:35.064Z,5.07
2023-01-09T21:52:04.657Z,5.00
2023-01-09T21:54:33.546Z,5.30
2023-01-09T21:57:02.746Z,4.85
2023-01-09T21:59:31.062Z,5.07
2023-01-09T22:01:59.533Z,4.70
2023-01-09T22:04:30.551Z,5.18
2023-01-09T22:06:58.879Z,4.90
2023-01-09T22:09:27.227Z,5.13
2023-01-09T22:11:55.549Z,5.20
2023-01-09T22:14:23.965Z,5.20
2023-01-09T22:16:52.235Z,4.65
2023-01-09T22:19:20.705Z,5.90
2023-01-09T22:21:50.577Z,4.00
2023-01-09T22:24:21.669Z,4.65
2023-01-09T22:26:50.059Z,4.35
2023-01-09T22:29:18.690Z,4.30
2023-01-09T22:31:47.850Z,4.47
2023-01-09T22:34:18.713Z,4.82
2023-01-09T22:36:47.917Z,4.50
2023-01-09T22:39:19.790Z,4.40
2023-01-09T22:41:54.524Z,5.50
2023-01-09T22:44:22.815Z,4.65
2023-01-09T22:46:50.991Z,4.70
2023-01-09T22:49:19.241Z,4.40
2023-01-09T22:51:47.668Z,4.67
2023-01-09T22:54:17.406Z,4.87
2023-01-09T22:56:45.630Z,4.68
2023-01-09T22:59:13.833Z,4.60
2023-01-09T23:01:42.145Z,4.80
2023-01-09T23:04:13.449Z,4.47
2023-01-09T23:06:41.688Z,4.60
2023-01-09T23:09:09.907Z,5.10
2023-01-09T23:11:57.052Z,4.57
2023-01-09T23:14:25.255Z,5.20
2023-01-09T23:16:53.523Z,4.65
2023-01-09T23:19:21.761Z,5.15
2023-01-09T23:21:50.230Z,5.22
2023-01-09T23:24:19.652Z,4.78
2023-01-09T23:26:49.789Z,4.80
2023-01-09T23:29:18.000Z,4.38
2023-01-09T23:31:46.711Z,4.60
2023-01-09T23:34:16.509Z,4.13
2023-01-09T23:36:45.106Z,4.43
2023-01-09T23:39:13.534Z,4.35
2023-01-09T23:42:00.323Z,4.20
2023-01-09T23:44:30.330Z,4.32
2023-01-09T23:46:58.953Z,3.78
2023-01-09T23:49:27.122Z,4.03
2023-01-09T23:51:56.528Z,4.00
2023-01-09T23:54:24.802Z,3.58
2023-01-09T23:56:56.495Z,3.70
2023-01-09T23:59:25.157Z,3.55
